createdAt,value
2022-09-14T00:01:25.393Z,2.00
2022-09-14T00:04:13.863Z,2.83
2022-09-14T00:06:40.994Z,3.10
2022-09-14T00:09:08.478Z,3.50
2022-09-14T00:11:36.749Z,3.50
2022-09-14T00:14:05.234Z,2.80
2022-09-14T00:16:38.033Z,3.23
2022-09-14T00:19:26.185Z,3.60
2022-09-14T00:21:55.729Z,2.80
2022-09-14T00:24:24.047Z,3.17
2022-09-14T00:26:51.399Z,3.63
2022-09-14T00:29:18.214Z,3.67
2022-09-14T00:31:45.475Z,3.40
2022-09-14T00:34:15.827Z,3.57
2022-09-14T00:36:45.078Z,3.70
2022-09-14T00:39:12.205Z,3.70
2022-09-14T00:41:42.413Z,3.87
2022-09-14T00:44:12.211Z,3.33
2022-09-14T00:46:43.266Z,3.27
2022-09-14T00:49:25.533Z,3.30
2022-09-14T00:52:11.210Z,3.20
2022-09-14T00:54:49.941Z,3.13
2022-09-14T00:57:17.709Z,3.43
2022-09-14T00:59:46.469Z,3.03
2022-09-14T01:02:16.793Z,3.80
2022-09-14T01:04:44.410Z,3.63
2022-09-14T01:07:19.996Z,3.10
2022-09-14T01:10:08.389Z,3.30
2022-09-14T01:13:03.939Z,3.00
2022-09-14T01:15:56.949Z,2.80
2022-09-14T01:18:45.999Z,3.07
2022-09-14T01:21:29.093Z,3.10
2022-09-14T01:24:06.139Z,3.13
2022-09-14T01:27:03.542Z,2.83
2022-09-14T01:29:38.441Z,3.43
2022-09-14T01:32:20.379Z,2.83
2022-09-14T01:34:54.239Z,4.33
2022-09-14T01:37:36.805Z,3.97
2022-09-14T01:40:11.446Z,4.47
2022-09-14T01:42:42.728Z,3.43
2022-09-14T01:45:12.629Z,4.03
2022-09-14T01:47:55.860Z,4.70
2022-09-14T01:50:36.906Z,3.90
2022-09-14T01:53:06.335Z,2.70
2022-09-14T01:55:44.728Z,3.00
2022-09-14T01:58:17.376Z,3.63
2022-09-14T02:00:46.094Z,3.50
2022-09-14T02:04:02.841Z,3.90
2022-09-14T02:06:42.609Z,3.53
2022-09-14T02:09:13.856Z,3.67
2022-09-14T02:11:40.616Z,3.17
2022-09-14T02:14:07.461Z,3.13
2022-09-14T02:16:34.699Z,2.87
2022-09-14T02:19:01.832Z,3.60
2022-09-14T02:21:32.077Z,3.53
2022-09-14T02:24:00.088Z,3.07
2022-09-14T02:26:28.010Z,2.90
2022-09-14T02:28:56.125Z,3.63
2022-09-14T02:31:50.123Z,2.90
2022-09-14T02:34:33.953Z,3.10
2022-09-14T02:37:25.678Z,2.50
2022-09-14T02:40:10.651Z,2.70
2022-09-14T02:42:46.459Z,3.23
2022-09-14T02:45:21.956Z,2.70
2022-09-14T02:48:12.951Z,2.53
2022-09-14T02:51:03.201Z,2.70
2022-09-14T02:53:39.949Z,2.70
2022-09-14T02:56:12.414Z,3.03
2022-09-14T02:58:42.052Z,3.57
2022-09-14T03:01:14.639Z,3.27
2022-09-14T03:03:41.499Z,3.63
2022-09-14T03:06:08.738Z,3.33
2022-09-14T03:08:35.745Z,3.00
2022-09-14T03:11:02.906Z,3.27
2022-09-14T03:13:29.597Z,2.97
2022-09-14T03:15:56.357Z,3.23
2022-09-14T03:18:23.220Z,2.87
2022-09-14T03:20:49.887Z,3.30
2022-09-14T03:23:16.598Z,2.63
2022-09-14T03:25:44.549Z,3.17
2022-09-14T03:28:12.353Z,3.43
2022-09-14T03:30:39.348Z,2.80
2022-09-14T03:33:06.194Z,3.27
2022-09-14T03:35:33.934Z,2.93
2022-09-14T03:38:03.270Z,3.40
2022-09-14T03:40:30.617Z,3.60
2022-09-14T03:42:58.075Z,2.83
2022-09-14T03:45:24.788Z,3.13
2022-09-14T03:47:51.567Z,3.00
2022-09-14T03:50:19.701Z,7.07
2022-09-14T03:52:46.665Z,4.20
2022-09-14T03:55:13.702Z,3.50
2022-09-14T03:57:40.435Z,3.33
2022-09-14T04:00:08.588Z,4.20
2022-09-14T04:02:35.601Z,3.70
2022-09-14T04:05:02.368Z,3.57
2022-09-14T04:07:29.144Z,3.33
2022-09-14T04:09:56.204Z,3.70
2022-09-14T04:12:22.933Z,3.23
2022-09-14T04:14:49.770Z,3.77
2022-09-14T04:17:17.600Z,4.30
2022-09-14T04:19:44.729Z,4.07
2022-09-14T04:22:11.495Z,3.80
2022-09-14T04:24:38.286Z,3.13
2022-09-14T04:27:04.998Z,2.90
2022-09-14T04:29:32.136Z,3.93
2022-09-14T04:31:58.878Z,3.60
2022-09-14T04:34:25.629Z,3.90
2022-09-14T04:36:52.318Z,4.20
2022-09-14T04:39:31.754Z,3.60
2022-09-14T04:41:58.485Z,4.67
2022-09-14T04:44:25.116Z,5.00
2022-09-14T04:46:52.258Z,4.50
2022-09-14T04:49:19.082Z,5.10
2022-09-14T04:51:45.827Z,5.47
2022-09-14T04:54:15.938Z,5.50
2022-09-14T04:56:43.261Z,6.00
2022-09-14T04:59:10.577Z,6.20
2022-09-14T05:01:43.148Z,5.83
2022-09-14T05:04:11.760Z,7.30
2022-09-14T05:06:40.490Z,6.27
2022-09-14T05:09:13.735Z,7.10
2022-09-14T05:11:41.612Z,6.20
2022-09-14T05:14:11.954Z,6.37
2022-09-14T05:16:39.876Z,5.73
2022-09-14T05:19:10.517Z,5.60
2022-09-14T05:21:37.882Z,5.93
2022-09-14T05:24:12.416Z,6.30
2022-09-14T05:26:39.134Z,6.20
2022-09-14T05:29:05.966Z,6.47
2022-09-14T05:31:33.427Z,6.13
2022-09-14T05:34:00.436Z,6.47
2022-09-14T05:36:27.489Z,6.60
2022-09-14T05:38:54.386Z,6.10
2022-09-14T05:41:21.362Z,6.60
2022-09-14T05:43:48.404Z,6.87
2022-09-14T05:46:17.696Z,5.97
2022-09-14T05:48:44.622Z,6.30
2022-09-14T05:51:16.567Z,6.00
2022-09-14T05:53:47.397Z,6.33
2022-09-14T05:56:14.309Z,6.40
2022-09-14T05:58:42.327Z,5.90
2022-09-14T06:01:13.343Z,5.90
2022-09-14T06:03:41.220Z,6.07
2022-09-14T06:06:09.644Z,5.10
2022-09-14T06:08:36.751Z,5.83
2022-09-14T06:11:12.318Z,6.03
2022-09-14T06:13:39.338Z,5.57
2022-09-14T06:16:08.350Z,6.20
2022-09-14T06:18:36.739Z,6.10
2022-09-14T06:21:04.741Z,6.47
2022-09-14T06:23:32.318Z,6.37
2022-09-14T06:26:01.242Z,6.47
2022-09-14T06:28:28.859Z,6.27
2022-09-14T06:30:56.571Z,6.40
2022-09-14T06:33:23.843Z,5.87
2022-09-14T06:36:00.873Z,6.70
2022-09-14T06:38:28.727Z,5.23
2022-09-14T06:41:01.080Z,5.17
2022-09-14T06:43:31.646Z,5.87
2022-09-14T06:45:59.804Z,6.60
2022-09-14T06:48:31.473Z,5.97
2022-09-14T06:50:58.568Z,5.90
2022-09-14T06:53:26.514Z,6.77
2022-09-14T06:55:53.415Z,6.80
2022-09-14T06:58:20.254Z,6.83
2022-09-14T07:00:47.054Z,7.17
2022-09-14T07:03:13.878Z,7.63
2022-09-14T07:05:40.667Z,7.60
2022-09-14T07:08:11.951Z,6.43
2022-09-14T07:10:39.242Z,6.37
2022-09-14T07:13:05.989Z,5.63
2022-09-14T07:15:33.422Z,6.57
2022-09-14T07:18:00.339Z,5.40
2022-09-14T07:20:27.047Z,6.20
2022-09-14T07:22:53.953Z,6.47
2022-09-14T07:25:20.734Z,5.50
2022-09-14T07:27:47.557Z,5.47
2022-09-14T07:30:14.457Z,5.57
2022-09-14T07:32:41.195Z,5.00
2022-09-14T07:35:08.459Z,5.97
2022-09-14T07:37:35.187Z,4.07
2022-09-14T07:40:02.241Z,4.67
2022-09-14T07:42:29.123Z,4.33
2022-09-14T07:44:55.853Z,4.23
2022-09-14T07:47:22.540Z,3.93
2022-09-14T07:49:49.290Z,5.03
2022-09-14T07:52:16.658Z,4.63
2022-09-14T07:54:43.410Z,5.10
2022-09-14T07:57:10.264Z,4.13
2022-09-14T07:59:37.621Z,4.40
2022-09-14T08:02:09.031Z,4.67
2022-09-14T08:04:36.477Z,4.60
2022-09-14T08:07:03.454Z,4.07
2022-09-14T08:09:30.396Z,4.60
2022-09-14T08:11:57.891Z,4.10
2022-09-14T08:14:25.038Z,4.90
2022-09-14T08:16:52.375Z,3.93
2022-09-14T08:19:22.742Z,4.30
2022-09-14T08:21:49.739Z,4.17
2022-09-14T08:24:21.901Z,5.00
2022-09-14T08:26:49.483Z,4.30
2022-09-14T08:29:18.035Z,3.40
2022-09-14T08:31:46.156Z,3.53
2022-09-14T08:34:14.136Z,4.30
2022-09-14T08:36:42.306Z,3.93
2022-09-14T08:39:11.198Z,3.70
2022-09-14T08:41:43.847Z,3.87
2022-09-14T08:44:29.229Z,3.27
2022-09-14T08:47:07.408Z,4.07
2022-09-14T08:49:46.817Z,4.10
2022-09-14T08:52:25.240Z,3.67
2022-09-14T08:54:57.945Z,3.50
2022-09-14T08:58:15.984Z,3.80
2022-09-14T09:00:52.224Z,3.90
2022-09-14T09:03:27.651Z,3.53
2022-09-14T09:06:15.970Z,3.47
2022-09-14T09:09:07.728Z,3.57
2022-09-14T09:11:42.722Z,3.60
2022-09-14T09:14:18.698Z,3.10
2022-09-14T09:16:50.603Z,4.00
2022-09-14T09:19:28.476Z,3.50
2022-09-14T09:21:56.078Z,3.30
2022-09-14T09:24:22.846Z,3.57
2022-09-14T09:26:50.474Z,3.20
2022-09-14T09:29:17.358Z,3.30
2022-09-14T09:31:48.781Z,3.03
2022-09-14T09:34:19.754Z,2.90
2022-09-14T09:36:50.040Z,3.30
2022-09-14T09:39:17.274Z,2.50
2022-09-14T09:41:54.685Z,3.00
2022-09-14T09:44:21.509Z,2.53
2022-09-14T09:46:53.865Z,2.70
2022-09-14T09:49:25.088Z,2.80
2022-09-14T09:51:53.422Z,2.37
2022-09-14T09:54:23.625Z,3.40
2022-09-14T09:56:57.459Z,2.90
2022-09-14T09:59:35.400Z,2.37
2022-09-14T10:02:27.726Z,3.27
2022-09-14T10:05:09.840Z,2.63
2022-09-14T10:07:51.300Z,2.80
2022-09-14T10:10:21.008Z,2.60
2022-09-14T10:12:51.144Z,2.87
2022-09-14T10:15:25.761Z,3.13
2022-09-14T10:18:02.920Z,2.43
2022-09-14T10:20:29.709Z,2.20
2022-09-14T10:22:56.432Z,3.13
2022-09-14T10:25:26.024Z,2.17
2022-09-14T10:27:55.534Z,2.77
2022-09-14T10:30:25.132Z,2.53
2022-09-14T10:33:02.172Z,2.60
2022-09-14T10:35:35.555Z,2.60
2022-09-14T10:38:15.944Z,2.77
2022-09-14T10:40:47.294Z,2.63
2022-09-14T10:43:45.694Z,2.60
2022-09-14T10:46:17.098Z,2.43
2022-09-14T10:49:13.988Z,2.10
2022-09-14T10:51:43.643Z,2.47
2022-09-14T10:54:41.136Z,2.80
2022-09-14T10:57:45.946Z,2.40
2022-09-14T11:00:16.230Z,2.60
2022-09-14T11:03:27.664Z,2.43
2022-09-14T11:06:19.115Z,2.73
2022-09-14T11:08:56.008Z,3.53
2022-09-14T11:11:33.348Z,2.17
2022-09-14T11:14:38.016Z,2.80
2022-09-14T11:17:43.699Z,2.70
2022-09-14T11:20:23.795Z,1.87
2022-09-14T11:22:56.449Z,2.33
2022-09-14T11:25:30.108Z,2.10
2022-09-14T11:28:13.773Z,2.37
2022-09-14T11:30:46.927Z,2.20
2022-09-14T11:33:19.261Z,2.10
2022-09-14T11:35:52.638Z,2.20
2022-09-14T11:38:22.910Z,2.80
2022-09-14T11:40:49.544Z,2.50
2022-09-14T11:43:25.458Z,2.23
2022-09-14T11:45:55.827Z,2.20
2022-09-14T11:48:47.966Z,2.60
2022-09-14T11:51:22.436Z,2.00
2022-09-14T11:53:50.824Z,2.60
2022-09-14T11:56:31.026Z,2.47
2022-09-14T11:59:00.999Z,2.03
2022-09-14T12:01:32.865Z,2.60
2022-09-14T12:04:08.276Z,2.20
2022-09-14T12:06:38.159Z,2.27
2022-09-14T12:09:24.376Z,2.33
2022-09-14T12:11:53.783Z,2.13
2022-09-14T12:14:30.169Z,2.20
2022-09-14T12:17:35.636Z,2.30
2022-09-14T12:20:27.613Z,2.60
2022-09-14T12:23:04.508Z,2.40
2022-09-14T12:25:31.429Z,2.60
2022-09-14T12:27:58.145Z,2.43
2022-09-14T12:30:54.128Z,3.03
2022-09-14T12:33:32.959Z,2.07
2022-09-14T12:36:11.139Z,2.53
2022-09-14T12:38:38.138Z,2.10
2022-09-14T12:41:10.994Z,2.60
2022-09-14T12:43:37.942Z,2.60
2022-09-14T12:46:07.904Z,2.50
2022-09-14T12:48:46.861Z,2.13
2022-09-14T12:51:28.974Z,2.30
2022-09-14T12:53:58.769Z,2.80
2022-09-14T12:56:31.294Z,2.50
2022-09-14T12:59:19.162Z,2.83
2022-09-14T13:02:14.143Z,3.20
2022-09-14T13:04:42.255Z,3.03
2022-09-14T13:07:20.655Z,3.00
2022-09-14T13:09:56.824Z,2.57
2022-09-14T13:12:41.159Z,2.60
2022-09-14T13:15:30.170Z,2.53
2022-09-14T13:17:59.747Z,2.53
2022-09-14T13:20:27.173Z,3.13
2022-09-14T13:22:54.065Z,2.93
2022-09-14T13:25:33.053Z,3.37
2022-09-14T13:28:06.015Z,2.37
2022-09-14T13:30:35.219Z,2.10
2022-09-14T13:33:03.533Z,2.03
2022-09-14T13:35:36.018Z,1.77
2022-09-14T13:38:17.946Z,2.37
2022-09-14T13:40:45.831Z,1.70
2022-09-14T13:43:13.059Z,1.83
2022-09-14T13:45:40.224Z,2.10
2022-09-14T13:48:07.116Z,2.10
2022-09-14T13:50:34.689Z,1.90
2022-09-14T13:53:03.357Z,1.97
2022-09-14T13:55:33.397Z,2.23
2022-09-14T13:58:12.632Z,1.80
2022-09-14T14:00:48.215Z,1.50
2022-09-14T14:03:26.598Z,1.63
2022-09-14T14:05:53.751Z,1.27
2022-09-14T14:08:36.414Z,1.47
2022-09-14T14:11:06.566Z,1.60
2022-09-14T14:13:35.515Z,1.33
2022-09-14T14:16:23.908Z,2.00
2022-09-14T14:18:55.415Z,1.60
2022-09-14T14:21:22.556Z,1.63
2022-09-14T14:24:12.301Z,1.80
2022-09-14T14:26:38.609Z,1.77
2022-09-14T14:29:12.533Z,1.40
2022-09-14T14:31:39.470Z,1.60
2022-09-14T14:34:18.757Z,1.40
2022-09-14T14:36:47.221Z,1.20
2022-09-14T14:39:14.378Z,1.60
2022-09-14T14:41:41.605Z,1.73
2022-09-14T14:44:15.587Z,2.23
2022-09-14T14:46:42.713Z,1.60
2022-09-14T14:49:12.780Z,1.90
2022-09-14T14:51:39.694Z,2.30
2022-09-14T14:54:06.744Z,2.00
2022-09-14T14:56:34.909Z,1.90
2022-09-14T14:59:02.478Z,1.47
2022-09-14T15:01:29.714Z,1.43
2022-09-14T15:03:56.647Z,1.60
2022-09-14T15:06:27.242Z,1.37
2022-09-14T15:08:55.656Z,1.50
2022-09-14T15:11:22.935Z,1.53
2022-09-14T15:13:50.002Z,1.57
2022-09-14T15:16:17.786Z,1.40
2022-09-14T15:18:45.092Z,1.60
2022-09-14T15:21:11.909Z,1.73
2022-09-14T15:23:38.942Z,1.70
2022-09-14T15:26:05.873Z,1.80
2022-09-14T15:28:35.806Z,2.13
2022-09-14T15:31:07.126Z,1.70
2022-09-14T15:33:34.734Z,1.43
2022-09-14T15:36:01.693Z,1.67
2022-09-14T15:38:28.475Z,1.40
2022-09-14T15:40:55.364Z,1.23
2022-09-14T15:43:22.150Z,1.40
2022-09-14T15:45:48.871Z,1.40
2022-09-14T15:48:17.674Z,1.30
2022-09-14T15:50:46.300Z,1.30
2022-09-14T15:53:15.236Z,1.00
2022-09-14T15:55:44.051Z,1.10
2022-09-14T15:58:11.758Z,1.67
2022-09-14T16:00:43.062Z,1.23
2022-09-14T16:03:10.243Z,1.07
2022-09-14T16:05:40.310Z,1.23
2022-09-14T16:08:07.654Z,1.30
2022-09-14T16:10:34.706Z,1.00
2022-09-14T16:13:01.472Z,1.00
2022-09-14T16:15:28.198Z,1.20
2022-09-14T16:17:55.910Z,1.10
2022-09-14T16:20:22.978Z,1.23
2022-09-14T16:22:50.920Z,1.33
2022-09-14T16:25:17.815Z,1.07
2022-09-14T16:27:44.881Z,1.40
2022-09-14T16:30:12.168Z,3.23
2022-09-14T16:32:39.073Z,1.40
2022-09-14T16:35:08.288Z,1.27
2022-09-14T16:37:35.510Z,1.20
2022-09-14T16:40:03.170Z,1.03
2022-09-14T16:42:29.963Z,1.43
2022-09-14T16:44:56.730Z,1.10
2022-09-14T16:47:25.649Z,1.37
2022-09-14T16:49:53.041Z,1.53
2022-09-14T16:52:19.749Z,1.53
2022-09-14T16:54:46.810Z,1.30
2022-09-14T16:57:13.833Z,1.70
2022-09-14T16:59:40.912Z,1.50
2022-09-14T17:02:10.576Z,1.53
2022-09-14T17:04:37.549Z,1.63
2022-09-14T17:07:04.582Z,1.30
2022-09-14T17:09:32.850Z,1.40
2022-09-14T17:12:00.070Z,1.70
2022-09-14T17:14:32.132Z,1.43
2022-09-14T17:17:00.101Z,1.50
2022-09-14T17:19:27.435Z,1.20
2022-09-14T17:21:54.401Z,1.50
2022-09-14T17:24:21.967Z,1.20
2022-09-14T17:26:49.273Z,2.40
2022-09-14T17:29:16.613Z,1.40
2022-09-14T17:31:44.649Z,1.50
2022-09-14T17:34:13.400Z,1.53
2022-09-14T17:36:40.238Z,1.50
2022-09-14T17:39:11.558Z,1.53
2022-09-14T17:41:39.195Z,1.50
2022-09-14T17:44:07.562Z,1.73
2022-09-14T17:46:35.991Z,1.93
2022-09-14T17:49:05.838Z,2.07
2022-09-14T17:51:36.234Z,1.90
2022-09-14T17:54:03.338Z,2.17
2022-09-14T17:56:30.660Z,2.10
2022-09-14T17:59:07.212Z,2.00
2022-09-14T18:01:34.538Z,2.03
2022-09-14T18:04:04.932Z,1.40
2022-09-14T18:06:34.834Z,2.03
2022-09-14T18:09:05.608Z,1.90
2022-09-14T18:11:34.348Z,2.10
2022-09-14T18:14:02.366Z,1.93
2022-09-14T18:16:29.362Z,1.90
2022-09-14T18:18:57.598Z,1.80
2022-09-14T18:21:25.363Z,2.03
2022-09-14T18:23:53.884Z,1.90
2022-09-14T18:26:22.679Z,2.27
2022-09-14T18:28:53.540Z,2.60
2022-09-14T18:31:20.476Z,2.00
2022-09-14T18:33:55.511Z,2.10
2022-09-14T18:36:22.669Z,2.40
2022-09-14T18:38:52.937Z,2.30
2022-09-14T18:41:21.403Z,1.90
2022-09-14T18:43:51.017Z,2.30
2022-09-14T18:46:18.705Z,1.97
2022-09-14T18:48:46.047Z,2.60
2022-09-14T18:51:14.206Z,2.13
2022-09-14T18:53:42.024Z,2.20
2022-09-14T18:56:13.699Z,2.40
2022-09-14T18:58:43.827Z,2.43
2022-09-14T19:01:11.785Z,2.80
2022-09-14T19:03:40.296Z,2.33
2022-09-14T19:06:18.453Z,2.73
2022-09-14T19:08:45.711Z,1.80
2022-09-14T19:11:18.612Z,2.07
2022-09-14T19:13:47.049Z,2.33
2022-09-14T19:16:18.868Z,1.83
2022-09-14T19:18:47.419Z,2.13
2022-09-14T19:21:23.431Z,2.53
2022-09-14T19:23:57.387Z,2.10
2022-09-14T19:26:24.185Z,2.23
2022-09-14T19:28:51.536Z,2.60
2022-09-14T19:31:20.296Z,2.60
2022-09-14T19:33:47.149Z,2.87
2022-09-14T19:36:22.189Z,2.20
2022-09-14T19:38:51.457Z,2.77
2022-09-14T19:41:19.555Z,2.90
2022-09-14T19:43:46.708Z,2.60
2022-09-14T19:46:19.848Z,2.40
2022-09-14T19:48:46.901Z,2.70
2022-09-14T19:51:17.248Z,2.80
2022-09-14T19:53:46.031Z,3.10
2022-09-14T19:56:17.220Z,2.97
2022-09-14T19:58:48.984Z,2.90
2022-09-14T20:01:18.147Z,2.83
2022-09-14T20:03:46.609Z,2.33
2022-09-14T20:06:19.537Z,2.63
2022-09-14T20:08:47.690Z,2.83
2022-09-14T20:11:19.951Z,2.43
2022-09-14T20:13:48.473Z,2.50
2022-09-14T20:16:23.865Z,2.60
2022-09-14T20:18:51.855Z,2.40
2022-09-14T20:21:22.088Z,2.20
2022-09-14T20:24:17.115Z,2.37
2022-09-14T20:26:46.765Z,3.57
2022-09-14T20:29:13.981Z,3.07
2022-09-14T20:31:41.095Z,2.77
2022-09-14T20:34:08.214Z,2.63
2022-09-14T20:36:35.071Z,4.53
2022-09-14T20:39:02.236Z,2.20
2022-09-14T20:41:31.747Z,2.70
2022-09-14T20:43:58.746Z,2.27
2022-09-14T20:46:30.944Z,1.97
2022-09-14T20:48:58.673Z,1.90
2022-09-14T20:51:25.908Z,2.20
2022-09-14T20:53:53.324Z,2.20
2022-09-14T20:56:26.956Z,1.90
2022-09-14T20:58:55.455Z,2.60
2022-09-14T21:01:24.000Z,2.13
2022-09-14T21:03:51.126Z,1.90
2022-09-14T21:06:23.366Z,2.40
2022-09-14T21:08:50.353Z,3.80
2022-09-14T21:11:20.132Z,3.73
2022-09-14T21:13:47.216Z,3.37
2022-09-14T21:16:13.916Z,2.30
2022-09-14T21:18:41.739Z,4.33
2022-09-14T21:21:10.948Z,3.77
2022-09-14T21:23:38.262Z,2.80
2022-09-14T21:26:06.966Z,2.60
2022-09-14T21:28:35.087Z,1.70
2022-09-14T21:31:08.051Z,1.93
2022-09-14T21:33:36.617Z,2.13
2022-09-14T21:36:10.138Z,2.20
2022-09-14T21:38:37.443Z,2.10
2022-09-14T21:41:07.779Z,2.17
2022-09-14T21:43:39.421Z,2.13
2022-09-14T21:46:07.011Z,2.63
2022-09-14T21:48:34.886Z,2.53
2022-09-14T21:51:32.170Z,2.03
2022-09-14T21:54:02.082Z,2.93
2022-09-14T21:56:31.066Z,2.47
2022-09-14T21:59:00.729Z,2.43
2022-09-14T22:01:28.269Z,2.50
2022-09-14T22:03:56.818Z,2.10
2022-09-14T22:06:27.390Z,2.53
2022-09-14T22:08:54.805Z,2.10
2022-09-14T22:11:25.257Z,2.30
2022-09-14T22:13:56.835Z,2.33
2022-09-14T22:16:25.129Z,2.30
2022-09-14T22:18:54.327Z,1.87
2022-09-14T22:21:22.083Z,2.60
2022-09-14T22:23:51.205Z,2.47
2022-09-14T22:26:20.062Z,2.57
2022-09-14T22:28:51.219Z,2.33
2022-09-14T22:31:19.766Z,2.60
2022-09-14T22:33:46.886Z,2.63
2022-09-14T22:36:16.135Z,2.63
2022-09-14T22:38:43.233Z,2.30
2022-09-14T22:41:13.170Z,2.67
2022-09-14T22:43:41.171Z,2.53
2022-09-14T22:46:09.168Z,2.90
2022-09-14T22:48:36.954Z,2.53
2022-09-14T22:51:05.346Z,2.80
2022-09-14T22:53:32.258Z,2.80
2022-09-14T22:55:59.315Z,2.00
2022-09-14T22:58:27.797Z,2.57
2022-09-14T23:00:54.571Z,2.17
2022-09-14T23:03:21.657Z,2.87
2022-09-14T23:05:55.506Z,2.40
2022-09-14T23:08:23.044Z,2.20
2022-09-14T23:10:50.019Z,2.37
2022-09-14T23:13:17.195Z,2.20
2022-09-14T23:15:44.327Z,2.70
2022-09-14T23:18:11.206Z,2.80
2022-09-14T23:20:42.709Z,2.57
2022-09-14T23:23:10.766Z,2.87
2022-09-14T23:25:39.079Z,2.03
2022-09-14T23:28:07.380Z,2.40
2022-09-14T23:30:35.303Z,1.93
2022-09-14T23:33:02.263Z,2.67
2022-09-14T23:35:29.713Z,3.00
2022-09-14T23:37:57.194Z,2.30
2022-09-14T23:40:24.403Z,2.40
2022-09-14T23:42:51.240Z,2.33
2022-09-14T23:45:17.978Z,2.47
2022-09-14T23:47:46.074Z,2.93
2022-09-14T23:50:12.995Z,3.30
2022-09-14T23:52:40.518Z,3.13
2022-09-14T23:55:07.753Z,2.70
2022-09-14T23:57:34.460Z,2.43
